createdAt,value
2019-04-27T00:00:23.791Z,96599.08
2019-04-27T00:01:50.323Z,96590.95
2019-04-27T00:03:06.047Z,96596.59
2019-04-27T00:04:25.292Z,96596.67
2019-04-27T00:05:46.683Z,96602.42
2019-04-27T00:06:57.284Z,96597.09
2019-04-27T00:08:11.500Z,96595.80
2019-04-27T00:09:34.057Z,96598.54
2019-04-27T00:10:50.675Z,96598.54
2019-04-27T00:12:03.506Z,96599.47
2019-04-27T00:13:10.710Z,96590.88
2019-04-27T00:14:19.497Z,96589.22
2019-04-27T00:15:39.894Z,96596.05
2019-04-27T00:17:08.748Z,96586.52
2019-04-27T00:18:37.624Z,96586.98
2019-04-27T00:19:55.585Z,96585.64
2019-04-27T00:21:06.885Z,96590.09
2019-04-27T00:22:25.915Z,96585.87
2019-04-27T00:23:34.033Z,96583.16
2019-04-27T00:24:41.447Z,96585.64
2019-04-27T00:25:48.732Z,96585.44
2019-04-27T00:26:57.236Z,96586.98
2019-04-27T00:28:05.465Z,96581.14
2019-04-27T00:29:13.721Z,96583.95
2019-04-27T00:30:23.447Z,96582.91
2019-04-27T00:31:31.014Z,96582.34
2019-04-27T00:32:39.786Z,96589.55
2019-04-27T00:33:47.301Z,96590.62
2019-04-27T00:34:54.616Z,96584.52
2019-04-27T00:36:07.593Z,96587.33
2019-04-27T00:37:53.053Z,96580.75
2019-04-27T00:39:06.385Z,96587.95
2019-04-27T00:40:23.603Z,96583.80
2019-04-27T00:41:30.913Z,96582.03
2019-04-27T00:42:40.720Z,96582.86
2019-04-27T00:43:47.960Z,96580.85
2019-04-27T00:44:55.185Z,96572.72
2019-04-27T00:46:04.045Z,96575.56
2019-04-27T00:47:11.541Z,96574.63
2019-04-27T00:48:18.755Z,96569.81
2019-04-27T00:49:26.038Z,96561.94
2019-04-27T00:50:33.764Z,96565.72
2019-04-27T00:51:41.164Z,96562.66
2019-04-27T00:52:48.362Z,96563.48
2019-04-27T00:53:55.572Z,96562.91
2019-04-27T00:55:03.908Z,96558.06
2019-04-27T00:56:26.799Z,96556.30
2019-04-27T00:57:53.580Z,96555.47
2019-04-27T00:59:19.010Z,96556.18
2019-04-27T01:00:39.765Z,96550.38
2019-04-27T01:02:05.879Z,96549.77
2019-04-27T01:03:50.161Z,96550.94
2019-04-27T01:04:57.659Z,96560.11
2019-04-27T01:06:05.378Z,96557.58
2019-04-27T01:07:14.388Z,96557.95
2019-04-27T01:08:22.937Z,96558.41
2019-04-27T01:09:30.300Z,96556.29
2019-04-27T01:10:37.510Z,96552.30
2019-04-27T01:11:44.718Z,96553.12
2019-04-27T01:12:53.092Z,96547.02
2019-04-27T01:14:01.406Z,96545.25
2019-04-27T01:15:08.675Z,96543.84
2019-04-27T01:16:21.437Z,96544.31
2019-04-27T01:17:25.300Z,96540.43
2019-04-27T01:18:32.571Z,96532.30
2019-04-27T01:19:39.769Z,96536.19
2019-04-27T01:20:46.979Z,96530.53
2019-04-27T01:21:54.192Z,96533.95
2019-04-27T01:23:02.016Z,96539.13
2019-04-27T01:24:10.290Z,96537.84
2019-04-27T01:25:18.876Z,96538.31
2019-04-27T01:26:38.704Z,96536.65
2019-04-27T01:27:55.469Z,96537.95
2019-04-27T01:29:10.270Z,96539.34
2019-04-27T01:30:28.944Z,96536.03
2019-04-27T01:31:36.176Z,96538.98
2019-04-27T01:32:43.416Z,96545.56
2019-04-27T01:33:50.648Z,96543.44
2019-04-27T01:34:59.166Z,96544.73
2019-04-27T01:36:07.007Z,96544.88
2019-04-27T01:37:15.289Z,96542.39
2019-04-27T01:38:22.936Z,96543.33
2019-04-27T01:39:30.131Z,96547.67
2019-04-27T01:40:38.589Z,96547.20
2019-04-27T01:41:45.858Z,96547.10
2019-04-27T01:42:53.069Z,96550.16
2019-04-27T01:44:00.324Z,96547.56
2019-04-27T01:45:08.615Z,96542.86
2019-04-27T01:46:15.796Z,96545.45
2019-04-27T01:47:23.008Z,96539.55
2019-04-27T01:48:30.580Z,96537.42
2019-04-27T01:49:39.603Z,96538.45
2019-04-27T01:50:49.224Z,96534.68
2019-04-27T01:51:56.545Z,96539.13
2019-04-27T01:53:03.744Z,96536.19
2019-04-27T01:54:13.549Z,96531.97
2019-04-27T01:55:20.787Z,96532.44
2019-04-27T01:56:29.373Z,96532.07
2019-04-27T01:57:38.523Z,96537.25
2019-04-27T01:58:46.036Z,96533.94
2019-04-27T01:59:53.267Z,96536.53
2019-04-27T02:01:25.599Z,96534.30
2019-04-27T02:02:51.403Z,96538.19
2019-04-27T02:04:06.187Z,96545.23
2019-04-27T02:05:49.165Z,96546.27
2019-04-27T02:06:59.014Z,96544.50
2019-04-27T02:08:06.329Z,96548.00
2019-04-27T02:09:18.779Z,96550.45
2019-04-27T02:10:26.350Z,96546.37
2019-04-27T02:11:33.571Z,96550.61
2019-04-27T02:12:43.704Z,96550.05
2019-04-27T02:13:50.943Z,96553.72
2019-04-27T02:14:58.905Z,96554.91
2019-04-27T02:16:09.016Z,96552.69
2019-04-27T02:17:16.421Z,96551.72
2019-04-27T02:18:34.802Z,96554.67
2019-04-27T02:19:33.797Z,96559.38
2019-04-27T02:20:44.310Z,96556.69
2019-04-27T02:21:51.526Z,96558.70
2019-04-27T02:22:58.946Z,96566.84
2019-04-27T02:24:07.276Z,96563.78
2019-04-27T02:25:15.056Z,96561.20
2019-04-27T02:26:22.255Z,96562.02
2019-04-27T02:27:31.038Z,96563.32
2019-04-27T02:28:58.542Z,96561.56
2019-04-27T02:30:40.969Z,96558.14
2019-04-27T02:32:10.271Z,96549.02
2019-04-27T02:33:37.293Z,96548.75
2019-04-27T02:35:09.497Z,96542.13
2019-04-27T02:36:16.811Z,96550.23
2019-04-27T02:37:24.076Z,96544.80
2019-04-27T02:38:31.504Z,96547.28
2019-04-27T02:39:39.861Z,96547.17
2019-04-27T02:40:59.846Z,96541.89
2019-04-27T02:42:07.185Z,96543.19
2019-04-27T02:43:15.078Z,96544.59
2019-04-27T02:44:36.849Z,96541.06
2019-04-27T02:45:44.057Z,96539.77
2019-04-27T02:46:51.248Z,96539.98
2019-04-27T02:47:59.840Z,96535.63
2019-04-27T02:49:07.422Z,96538.11
2019-04-27T02:50:16.166Z,96536.36
2019-04-27T02:51:35.322Z,96540.10
2019-04-27T02:52:46.324Z,96543.88
2019-04-27T02:53:54.254Z,96536.11
2019-04-27T02:55:01.556Z,96533.42
2019-04-27T02:56:10.391Z,96532.38
2019-04-27T02:57:19.811Z,96533.47
2019-04-27T02:58:26.788Z,96536.32
2019-04-27T02:59:33.986Z,96537.38
2019-04-27T03:00:41.421Z,96533.38
2019-04-27T03:01:54.408Z,96534.21
2019-04-27T03:03:05.024Z,96537.31
2019-04-27T03:04:13.317Z,96536.84
2019-04-27T03:05:29.501Z,96533.80
2019-04-27T03:06:35.803Z,96535.45
2019-04-27T03:07:43.366Z,96534.16
2019-04-27T03:08:53.859Z,96533.22
2019-04-27T03:10:02.094Z,96536.50
2019-04-27T03:11:09.985Z,96539.45
2019-04-27T03:12:19.335Z,96537.69
2019-04-27T03:13:51.733Z,96533.34
2019-04-27T03:15:15.491Z,96534.17
2019-04-27T03:16:39.470Z,96537.33
2019-04-27T03:18:23.695Z,96533.22
2019-04-27T03:19:52.396Z,96534.26
2019-04-27T03:21:05.300Z,96529.60
2019-04-27T03:22:30.468Z,96535.85
2019-04-27T03:23:37.754Z,96533.13
2019-04-27T03:25:22.366Z,96536.68
2019-04-27T03:26:50.790Z,96533.48
2019-04-27T03:28:10.884Z,96529.95
2019-04-27T03:29:20.192Z,96529.44
2019-04-27T03:30:31.785Z,96528.61
2019-04-27T03:31:36.046Z,96525.45
2019-04-27T03:32:43.860Z,96525.70
2019-04-27T03:33:58.318Z,96528.08
2019-04-27T03:35:02.740Z,96528.31
2019-04-27T03:36:12.908Z,96522.92
2019-04-27T03:37:20.141Z,96524.11
2019-04-27T03:38:30.000Z,96525.87
2019-04-27T03:39:36.209Z,96526.70
2019-04-27T03:40:43.541Z,96520.23
2019-04-27T03:41:52.965Z,96513.28
2019-04-27T03:43:02.890Z,96517.06
2019-04-27T03:44:10.111Z,96517.53
2019-04-27T03:45:20.010Z,96511.05
2019-04-27T03:46:26.391Z,96512.34
2019-04-27T03:47:33.636Z,96513.75
2019-04-27T03:48:41.021Z,96507.74
2019-04-27T03:49:50.811Z,96511.63
2019-04-27T03:51:13.163Z,96503.49
2019-04-27T03:52:40.537Z,96504.43
2019-04-27T03:54:22.186Z,96508.06
2019-04-27T03:55:32.627Z,96510.99
2019-04-27T03:56:45.733Z,96503.28
2019-04-27T03:58:00.125Z,96507.27
2019-04-27T03:59:10.731Z,96507.27
2019-04-27T04:00:21.062Z,96507.27
2019-04-27T04:01:30.204Z,96503.39
2019-04-27T04:02:37.197Z,96496.09
2019-04-27T04:03:44.467Z,96498.21
2019-04-27T04:04:51.748Z,96497.88
2019-04-27T04:06:00.209Z,96504.82
2019-04-27T04:07:16.973Z,96490.22
2019-04-27T04:08:24.365Z,96494.10
2019-04-27T04:09:41.253Z,96492.55
2019-04-27T04:10:53.324Z,96492.55
2019-04-27T04:12:06.745Z,96502.08
2019-04-27T04:13:20.197Z,96500.89
2019-04-27T04:14:30.118Z,96496.54
2019-04-27T04:15:44.243Z,96497.83
2019-04-27T04:16:58.977Z,96498.66
2019-04-27T04:18:03.764Z,96499.95
2019-04-27T04:19:11.375Z,96499.70
2019-04-27T04:20:20.209Z,96495.81
2019-04-27T04:21:29.851Z,96498.88
2019-04-27T04:22:36.517Z,96497.31
2019-04-27T04:23:43.745Z,96504.72
2019-04-27T04:24:50.954Z,96502.59
2019-04-27T04:25:59.771Z,96497.09
2019-04-27T04:27:09.648Z,96503.89
2019-04-27T04:28:16.171Z,96506.98
2019-04-27T04:29:23.501Z,96505.69
2019-04-27T04:30:30.866Z,96506.98
2019-04-27T04:31:40.360Z,96503.09
2019-04-27T04:32:49.835Z,96510.73
2019-04-27T04:33:55.868Z,96507.20
2019-04-27T04:35:25.019Z,96508.86
2019-04-27T04:36:32.292Z,96504.88
2019-04-27T04:37:39.740Z,96511.89
2019-04-27T04:38:46.982Z,96507.72
2019-04-27T04:39:54.198Z,96511.14
2019-04-27T04:41:05.290Z,96514.12
2019-04-27T04:42:43.730Z,96515.78
2019-04-27T04:44:06.909Z,96513.19
2019-04-27T04:45:32.050Z,96519.58
2019-04-27T04:46:50.142Z,96522.27
2019-04-27T04:48:03.453Z,96519.42
2019-04-27T04:49:10.639Z,96526.25
2019-04-27T04:50:22.503Z,96527.55
2019-04-27T04:51:26.765Z,96526.52
2019-04-27T04:52:34.013Z,96527.60
2019-04-27T04:53:42.178Z,96533.44
2019-04-27T04:54:49.718Z,96529.78
2019-04-27T04:56:00.346Z,96527.81
2019-04-27T04:57:09.322Z,96534.55
2019-04-27T04:58:16.696Z,96533.50
2019-04-27T04:59:25.134Z,96536.36
2019-04-27T05:00:32.408Z,96527.16
2019-04-27T05:01:40.017Z,96537.30
2019-04-27T05:02:49.115Z,96537.56
2019-04-27T05:03:56.303Z,96536.06
2019-04-27T05:05:03.531Z,96532.44
2019-04-27T05:06:10.845Z,96541.26
2019-04-27T05:07:19.427Z,96542.34
2019-04-27T05:08:26.757Z,96537.42
2019-04-27T05:09:34.053Z,96549.33
2019-04-27T05:10:41.295Z,96547.10
2019-04-27T05:11:48.799Z,96549.59
2019-04-27T05:12:56.035Z,96554.27
2019-04-27T05:14:03.319Z,96550.38
2019-04-27T05:15:10.543Z,96549.59
2019-04-27T05:16:18.940Z,96547.10
2019-04-27T05:17:26.977Z,96551.92
2019-04-27T05:18:34.201Z,96545.19
2019-04-27T05:19:41.429Z,96544.00
2019-04-27T05:20:59.936Z,96549.28
2019-04-27T05:22:07.166Z,96553.27
2019-04-27T05:23:14.403Z,96548.08
2019-04-27T05:24:22.711Z,96551.13
2019-04-27T05:25:29.951Z,96546.88
2019-04-27T05:26:37.236Z,96543.00
2019-04-27T05:27:44.478Z,96543.93
2019-04-27T05:28:51.779Z,96546.52
2019-04-27T05:30:00.958Z,96544.40
2019-04-27T05:31:09.443Z,96546.16
2019-04-27T05:32:16.639Z,96551.34
2019-04-27T05:33:23.849Z,96548.75
2019-04-27T05:34:31.088Z,96552.53
2019-04-27T05:35:40.652Z,96549.01
2019-04-27T05:36:48.775Z,96553.36
2019-04-27T05:38:00.949Z,96552.06
2019-04-27T05:39:06.952Z,96553.00
2019-04-27T05:40:14.301Z,96547.92
2019-04-27T05:41:21.605Z,96544.50
2019-04-27T05:42:28.825Z,96545.80
2019-04-27T05:43:54.910Z,96550.05
2019-04-27T05:45:41.772Z,96550.88
2019-04-27T05:47:26.324Z,96546.98
2019-04-27T05:48:34.108Z,96542.93
2019-04-27T05:49:44.724Z,96545.67
2019-04-27T05:50:58.864Z,96550.48
2019-04-27T05:52:01.172Z,96555.20
2019-04-27T05:53:08.713Z,96550.38
2019-04-27T05:54:15.978Z,96547.80
2019-04-27T05:55:23.281Z,96553.59
2019-04-27T05:56:30.505Z,96552.56
2019-04-27T05:57:39.042Z,96551.99
2019-04-27T05:58:46.404Z,96551.28
2019-04-27T05:59:55.063Z,96554.14
2019-04-27T06:01:02.300Z,96548.39
2019-04-27T06:02:09.553Z,96548.64
2019-04-27T06:03:16.767Z,96547.97
2019-04-27T06:04:23.982Z,96543.95
2019-04-27T06:05:31.210Z,96545.97
2019-04-27T06:06:39.885Z,96550.11
2019-04-27T06:07:48.782Z,96547.42
2019-04-27T06:08:56.126Z,96545.55
2019-04-27T06:10:03.951Z,96542.50
2019-04-27T06:11:11.149Z,96549.33
2019-04-27T06:12:19.058Z,96544.88
2019-04-27T06:13:28.708Z,96551.68
2019-04-27T06:14:35.204Z,96546.03
2019-04-27T06:15:42.438Z,96544.27
2019-04-27T06:16:51.516Z,96543.34
2019-04-27T06:17:59.667Z,96547.95
2019-04-27T06:19:07.044Z,96545.72
2019-04-27T06:20:14.671Z,96546.55
2019-04-27T06:21:21.896Z,96546.80
2019-04-27T06:22:29.430Z,96540.69
2019-04-27T06:23:36.692Z,96545.30
2019-04-27T06:24:43.918Z,96540.94
2019-04-27T06:25:51.163Z,96538.68
2019-04-27T06:26:59.675Z,96544.83
2019-04-27T06:28:07.066Z,96547.75
2019-04-27T06:29:14.278Z,96546.95
2019-04-27T06:30:21.535Z,96538.35
2019-04-27T06:31:29.706Z,96543.53
2019-04-27T06:32:37.168Z,96547.75
2019-04-27T06:33:45.582Z,96554.72
2019-04-27T06:34:52.779Z,96547.89
2019-04-27T06:36:01.800Z,96544.00
2019-04-27T06:37:09.615Z,96544.47
2019-04-27T06:38:16.825Z,96546.13
2019-04-27T06:39:24.037Z,96545.30
2019-04-27T06:40:31.248Z,96545.98
2019-04-27T06:41:39.995Z,96549.41
2019-04-27T06:42:48.647Z,96546.70
2019-04-27T06:43:56.002Z,96545.88
2019-04-27T06:45:03.334Z,96550.13
2019-04-27T06:46:10.544Z,96545.41
2019-04-27T06:47:19.111Z,96552.25
2019-04-27T06:48:26.509Z,96550.13
2019-04-27T06:49:33.710Z,96545.77
2019-04-27T06:50:40.934Z,96549.66
2019-04-27T06:51:49.812Z,96547.53
2019-04-27T06:52:58.970Z,96545.77
2019-04-27T06:54:06.508Z,96548.83
2019-04-27T06:55:13.714Z,96552.36
2019-04-27T06:56:20.919Z,96544.94
2019-04-27T06:57:29.222Z,96548.36
2019-04-27T06:58:36.493Z,96545.77
2019-04-27T06:59:43.739Z,96548.26
2019-04-27T07:00:50.958Z,96551.67
2019-04-27T07:01:59.110Z,96544.62
2019-04-27T07:03:10.307Z,96545.92
2019-04-27T07:04:16.585Z,96549.59
2019-04-27T07:05:24.063Z,96542.18
2019-04-27T07:06:31.292Z,96544.53
2019-04-27T07:07:39.681Z,96543.95
2019-04-27T07:08:46.888Z,96541.25
2019-04-27T07:09:54.166Z,96544.92
2019-04-27T07:11:01.488Z,96550.47
2019-04-27T07:12:09.019Z,96542.95
2019-04-27T07:13:17.374Z,96541.52
2019-04-27T07:14:24.586Z,96539.75
2019-04-27T07:15:31.796Z,96540.11
2019-04-27T07:16:39.272Z,96541.30
2019-04-27T07:17:46.518Z,96544.25
2019-04-27T07:18:53.728Z,96536.73
2019-04-27T07:20:00.929Z,96543.35
2019-04-27T07:21:17.026Z,96536.27
2019-04-27T07:22:19.897Z,96538.64
2019-04-27T07:23:29.095Z,96533.23
2019-04-27T07:24:35.964Z,96538.67
2019-04-27T07:25:43.175Z,96543.28
2019-04-27T07:26:50.400Z,96539.25
2019-04-27T07:27:59.203Z,96535.50
2019-04-27T07:29:06.548Z,96537.52
2019-04-27T07:30:14.542Z,96532.61
2019-04-27T07:31:21.753Z,96529.30
2019-04-27T07:32:29.268Z,96536.38
2019-04-27T07:33:36.563Z,96532.74
2019-04-27T07:34:43.836Z,96529.93
2019-04-27T07:35:51.076Z,96531.33
2019-04-27T07:36:59.753Z,96530.64
2019-04-27T07:38:07.251Z,96531.24
2019-04-27T07:39:14.843Z,96527.95
2019-04-27T07:40:22.067Z,96528.06
2019-04-27T07:41:29.314Z,96521.23
2019-04-27T07:42:36.595Z,96519.60
2019-04-27T07:43:49.491Z,96524.53
2019-04-27T07:45:11.300Z,96527.73
2019-04-27T07:46:18.612Z,96524.08
2019-04-27T07:47:31.043Z,96525.14
2019-04-27T07:48:39.579Z,96520.30
2019-04-27T07:49:47.132Z,96522.78
2019-04-27T07:50:55.497Z,96524.18
2019-04-27T07:52:02.742Z,96518.41
2019-04-27T07:53:09.969Z,96519.83
2019-04-27T07:54:18.814Z,96525.73
2019-04-27T07:55:26.201Z,96522.91
2019-04-27T07:56:43.921Z,96519.24
2019-04-27T07:57:51.275Z,96521.84
2019-04-27T07:58:59.672Z,96518.55
2019-04-27T08:00:09.357Z,96515.57
2019-04-27T08:01:19.151Z,96519.94
2019-04-27T08:02:26.555Z,96517.00
2019-04-27T08:03:33.758Z,96518.39
2019-04-27T08:04:40.998Z,96528.91
2019-04-27T08:05:49.101Z,96511.78
2019-04-27T08:06:56.495Z,96527.58
2019-04-27T08:08:03.719Z,96519.20
2019-04-27T08:09:10.948Z,96524.31
2019-04-27T08:10:19.366Z,96519.00
2019-04-27T08:11:26.736Z,96522.77
2019-04-27T08:12:33.960Z,96530.34
2019-04-27T08:13:41.199Z,96524.20
2019-04-27T08:14:49.120Z,96526.67
2019-04-27T08:15:56.492Z,96526.05
2019-04-27T08:17:03.691Z,96519.91
2019-04-27T08:18:10.961Z,96522.28
2019-04-27T08:19:19.702Z,96520.27
2019-04-27T08:20:29.251Z,96520.50
2019-04-27T08:21:43.337Z,96515.16
2019-04-27T08:22:44.890Z,96518.94
2019-04-27T08:23:52.120Z,96519.30
2019-04-27T08:24:59.661Z,96525.67
2019-04-27T08:26:10.047Z,96522.95
2019-04-27T08:27:26.161Z,96526.73
2019-04-27T08:28:48.642Z,96526.37
2019-04-27T08:30:10.207Z,96530.75
2019-04-27T08:31:30.575Z,96527.91
2019-04-27T08:32:41.498Z,96522.84
2019-04-27T08:33:48.952Z,96524.14
2019-04-27T08:34:56.213Z,96516.10
2019-04-27T08:36:03.515Z,96524.48
2019-04-27T08:37:10.847Z,96516.77
2019-04-27T08:38:20.385Z,96512.52
2019-04-27T08:39:27.083Z,96510.86
2019-04-27T08:40:34.284Z,96513.07
2019-04-27T08:41:41.492Z,96511.53
2019-04-27T08:42:51.051Z,96516.02
2019-04-27T08:43:58.708Z,96514.83
2019-04-27T08:45:06.711Z,96510.45
2019-04-27T08:46:13.934Z,96505.92
2019-04-27T08:47:21.175Z,96499.66
2019-04-27T08:48:34.689Z,96497.53
2019-04-27T08:49:39.237Z,96509.46
2019-04-27T08:50:46.368Z,96502.36
2019-04-27T08:51:58.822Z,96506.97
2019-04-27T08:53:04.131Z,96509.17
2019-04-27T08:54:11.597Z,96500.78
2019-04-27T08:55:19.606Z,96507.16
2019-04-27T08:56:27.129Z,96502.06
2019-04-27T08:57:34.387Z,96508.64
2019-04-27T08:58:41.657Z,96500.72
2019-04-27T08:59:50.898Z,96507.92
2019-04-27T09:00:59.031Z,96502.59
2019-04-27T09:02:06.381Z,96498.09
2019-04-27T09:03:13.623Z,96496.20
2019-04-27T09:04:20.834Z,96498.20
2019-04-27T09:05:28.931Z,96492.37
2019-04-27T09:06:39.929Z,96490.14
2019-04-27T09:07:59.514Z,96485.52
2019-04-27T09:09:13.145Z,96489.90
2019-04-27T09:10:34.993Z,96480.44
2019-04-27T09:11:56.516Z,96489.08
2019-04-27T09:13:19.513Z,96486.24
2019-04-27T09:14:31.647Z,96479.16
2019-04-27T09:15:46.459Z,96479.88
2019-04-27T09:17:07.280Z,96474.33
2019-04-27T09:18:16.758Z,96473.03
2019-04-27T09:19:30.328Z,96473.38
2019-04-27T09:20:40.799Z,96469.70
2019-04-27T09:22:13.614Z,96465.17
2019-04-27T09:23:13.729Z,96464.83
2019-04-27T09:24:20.979Z,96464.48
2019-04-27T09:25:29.614Z,96468.83
2019-04-27T09:26:36.988Z,96462.75
2019-04-27T09:27:44.341Z,96467.92
2019-04-27T09:28:51.552Z,96467.74
2019-04-27T09:29:59.125Z,96462.51
2019-04-27T09:31:09.069Z,96455.81
2019-04-27T09:32:16.232Z,96455.78
2019-04-27T09:33:23.637Z,96442.72
2019-04-27T09:34:30.878Z,96444.09
2019-04-27T09:35:38.119Z,96448.91
2019-04-27T09:36:46.410Z,96446.72
2019-04-27T09:37:53.710Z,96440.08
2019-04-27T09:39:00.907Z,96442.98
2019-04-27T09:40:09.933Z,96449.08
2019-04-27T09:41:17.145Z,96442.66
2019-04-27T09:42:24.430Z,96447.13
2019-04-27T09:43:31.777Z,96442.48
2019-04-27T09:44:39.110Z,96441.58
2019-04-27T09:45:47.178Z,96437.76
2019-04-27T09:46:56.091Z,96438.54
2019-04-27T09:48:06.449Z,96430.80
2019-04-27T09:49:13.623Z,96433.14
2019-04-27T09:50:21.493Z,96429.45
2019-04-27T09:51:28.694Z,96431.28
2019-04-27T09:52:35.938Z,96425.80
2019-04-27T09:53:43.126Z,96435.27
2019-04-27T09:54:50.338Z,96433.49
2019-04-27T09:56:00.684Z,96438.57
2019-04-27T09:57:07.925Z,96437.75
2019-04-27T09:58:15.996Z,96431.92
2019-04-27T09:59:24.281Z,96433.58
2019-04-27T10:00:31.510Z,96433.92
2019-04-27T10:01:38.749Z,96439.95
2019-04-27T10:02:47.447Z,96438.48
2019-04-27T10:03:56.531Z,96438.97
2019-04-27T10:05:03.624Z,96439.80
2019-04-27T10:06:12.499Z,96440.27
2019-04-27T10:07:19.745Z,96435.53
2019-04-27T10:08:27.028Z,96436.36
2019-04-27T10:09:34.255Z,96434.58
2019-04-27T10:10:41.499Z,96431.84
2019-04-27T10:11:48.810Z,96438.36
2019-04-27T10:12:56.817Z,96437.53
2019-04-27T10:14:05.906Z,96434.58
2019-04-27T10:15:13.578Z,96427.53
2019-04-27T10:16:20.794Z,96428.06
2019-04-27T10:17:28.018Z,96426.84
2019-04-27T10:18:36.790Z,96424.50
2019-04-27T10:19:46.033Z,96426.89
2019-04-27T10:20:59.775Z,96425.94
2019-04-27T10:22:02.231Z,96427.11
2019-04-27T10:23:10.641Z,96422.72
2019-04-27T10:24:17.928Z,96426.36
2019-04-27T10:25:26.633Z,96416.77
2019-04-27T10:26:33.869Z,96409.95
2019-04-27T10:27:45.711Z,96414.90
2019-04-27T10:28:53.179Z,96407.08
2019-04-27T10:30:00.494Z,96403.99
2019-04-27T10:31:07.885Z,96405.98
2019-04-27T10:32:16.196Z,96403.25
2019-04-27T10:33:25.649Z,96408.98
2019-04-27T10:34:33.136Z,96402.06
2019-04-27T10:35:40.359Z,96398.92
2019-04-27T10:36:47.632Z,96396.09
2019-04-27T10:37:55.222Z,96401.77
2019-04-27T10:39:02.369Z,96397.52
2019-04-27T10:40:09.986Z,96395.36
2019-04-27T10:41:17.213Z,96392.24
2019-04-27T10:42:25.383Z,96390.11
2019-04-27T10:43:33.371Z,96387.43
2019-04-27T10:44:40.600Z,96392.89
2019-04-27T10:45:47.858Z,96387.59
2019-04-27T10:46:55.305Z,96385.88
2019-04-27T10:48:04.227Z,96387.89
2019-04-27T10:49:11.753Z,96378.81
2019-04-27T10:50:19.878Z,96379.36
2019-04-27T10:51:27.136Z,96384.61
2019-04-27T10:52:34.397Z,96379.30
2019-04-27T10:53:41.632Z,96380.64
2019-04-27T10:54:48.874Z,96378.91
2019-04-27T10:55:56.620Z,96374.22
2019-04-27T10:57:05.937Z,96373.77
2019-04-27T10:58:12.982Z,96379.38
2019-04-27T10:59:20.207Z,96375.23
2019-04-27T11:00:36.880Z,96372.84
2019-04-27T11:01:45.888Z,96379.96
2019-04-27T11:02:53.077Z,96378.56
2019-04-27T11:04:10.910Z,96372.42
2019-04-27T11:05:22.696Z,96371.13
2019-04-27T11:06:39.629Z,96376.98
2019-04-27T11:07:48.392Z,96384.66
2019-04-27T11:08:56.092Z,96374.45
2019-04-27T11:10:03.424Z,96367.36
2019-04-27T11:11:10.650Z,96385.70
2019-04-27T11:12:17.938Z,96382.55
2019-04-27T11:13:25.789Z,96389.75
2019-04-27T11:14:33.294Z,96405.85
2019-04-27T11:15:40.529Z,96388.81
2019-04-27T11:16:47.739Z,96384.67
2019-04-27T11:17:56.142Z,96386.55
2019-04-27T11:19:03.668Z,96384.53
2019-04-27T11:20:11.713Z,96383.10
2019-04-27T11:21:18.939Z,96380.13
2019-04-27T11:22:26.198Z,96378.41
2019-04-27T11:23:35.948Z,96379.69
2019-04-27T11:24:43.259Z,96371.11
2019-04-27T11:25:50.498Z,96372.21
2019-04-27T11:26:57.831Z,96372.34
2019-04-27T11:28:05.786Z,96370.08
2019-04-27T11:29:13.242Z,96366.70
2019-04-27T11:30:22.180Z,96365.47
2019-04-27T11:31:29.614Z,96364.05
2019-04-27T11:32:36.975Z,96359.23
2019-04-27T11:33:44.323Z,96364.20
2019-04-27T11:35:09.447Z,96379.84
2019-04-27T11:36:35.620Z,96358.20
2019-04-27T11:37:42.867Z,96358.89
2019-04-27T11:38:51.652Z,96366.58
2019-04-27T11:39:59.968Z,96357.31
2019-04-27T11:41:07.605Z,96351.40
2019-04-27T11:42:14.966Z,96342.89
2019-04-27T11:43:22.249Z,96345.95
2019-04-27T11:44:29.525Z,96363.55
2019-04-27T11:45:36.883Z,96328.33
2019-04-27T11:46:45.496Z,96345.88
2019-04-27T11:47:53.120Z,96342.52
2019-04-27T11:49:00.433Z,96357.59
2019-04-27T11:50:08.413Z,96335.06
2019-04-27T11:51:17.390Z,96342.47
2019-04-27T11:52:24.752Z,96341.05
2019-04-27T11:53:32.010Z,96335.82
2019-04-27T11:54:39.209Z,96332.94
2019-04-27T11:55:46.835Z,96342.32
2019-04-27T11:56:55.997Z,96349.35
2019-04-27T11:58:02.977Z,96347.25
2019-04-27T11:59:10.254Z,96342.02
2019-04-27T12:00:20.660Z,96343.33
2019-04-27T12:01:27.885Z,96353.80
2019-04-27T12:02:36.286Z,96348.05
2019-04-27T12:03:43.531Z,96342.66
2019-04-27T12:04:50.750Z,96351.14
2019-04-27T12:06:00.326Z,96341.16
2019-04-27T12:07:08.652Z,96349.31
2019-04-27T12:08:16.263Z,96359.70
2019-04-27T12:09:24.650Z,96352.97
2019-04-27T12:10:31.845Z,96352.26
2019-04-27T12:11:39.087Z,96360.20
2019-04-27T12:12:46.483Z,96358.99
2019-04-27T12:13:53.794Z,96358.26
2019-04-27T12:15:01.008Z,96361.41
2019-04-27T12:16:08.516Z,96356.75
2019-04-27T12:17:16.521Z,96358.81
2019-04-27T12:18:23.838Z,96355.95
2019-04-27T12:19:31.054Z,96355.70
2019-04-27T12:20:39.406Z,96358.56
2019-04-27T12:21:46.602Z,96351.13
2019-04-27T12:22:53.843Z,96350.91
2019-04-27T12:24:01.064Z,96359.17
2019-04-27T12:25:09.445Z,96361.39
2019-04-27T12:26:36.159Z,96351.54
2019-04-27T12:27:59.619Z,96350.80
2019-04-27T12:29:07.999Z,96351.00
2019-04-27T12:30:34.747Z,96352.49
2019-04-27T12:31:46.441Z,96345.08
2019-04-27T12:32:53.551Z,96350.20
2019-04-27T12:34:00.774Z,96356.67
2019-04-27T12:35:08.826Z,96353.58
2019-04-27T12:36:16.035Z,96357.31
2019-04-27T12:37:23.261Z,96355.44
2019-04-27T12:38:30.502Z,96356.67
2019-04-27T12:39:37.760Z,96348.30
2019-04-27T12:40:46.592Z,96360.69
2019-04-27T12:41:55.949Z,96354.78
2019-04-27T12:43:03.129Z,96358.84
2019-04-27T12:44:11.351Z,96356.70
2019-04-27T12:45:18.780Z,96358.84
2019-04-27T12:46:26.037Z,96356.23
2019-04-27T12:47:33.531Z,96355.27
2019-04-27T12:48:41.088Z,96354.30
2019-04-27T12:49:48.468Z,96352.17
2019-04-27T12:50:56.317Z,96356.91
2019-04-27T12:52:03.712Z,96351.22
2019-04-27T12:53:16.056Z,96346.83
2019-04-27T12:54:31.679Z,96351.42
2019-04-27T12:56:03.414Z,96350.77
2019-04-27T12:57:36.397Z,96346.72
2019-04-27T12:59:02.593Z,96348.84
2019-04-27T13:00:26.634Z,96369.03
2019-04-27T13:01:33.926Z,96370.98
2019-04-27T13:02:41.136Z,96357.87
2019-04-27T13:03:48.367Z,96365.36
2019-04-27T13:04:56.762Z,96367.15
2019-04-27T13:06:04.185Z,96359.45
2019-04-27T13:07:11.378Z,96363.84
2019-04-27T13:08:18.590Z,96361.03
2019-04-27T13:09:25.920Z,96355.13
2019-04-27T13:10:34.238Z,96355.44
2019-04-27T13:11:41.435Z,96351.80
2019-04-27T13:12:48.647Z,96352.07
2019-04-27T13:13:57.511Z,96350.56
2019-04-27T13:15:05.995Z,96347.30
2019-04-27T13:16:13.239Z,96356.08
2019-04-27T13:17:20.466Z,96353.41
2019-04-27T13:18:27.916Z,96348.80
2019-04-27T13:19:36.549Z,96349.28
2019-04-27T13:20:43.923Z,96350.24
2019-04-27T13:21:51.198Z,96352.38
2019-04-27T13:22:58.424Z,96352.58
2019-04-27T13:24:06.953Z,96357.18
2019-04-27T13:25:14.889Z,96351.83
2019-04-27T13:26:22.395Z,96351.34
2019-04-27T13:27:29.634Z,96349.91
2019-04-27T13:28:36.894Z,96347.61
2019-04-27T13:29:44.117Z,96340.61
2019-04-27T13:30:51.538Z,96338.34
2019-04-27T13:31:58.778Z,96337.39
2019-04-27T13:33:06.156Z,96343.56
2019-04-27T13:34:13.410Z,96342.39
2019-04-27T13:35:20.791Z,96346.95
2019-04-27T13:36:29.124Z,96342.84
2019-04-27T13:37:39.407Z,96343.11
2019-04-27T13:38:46.788Z,96341.12
2019-04-27T13:40:03.925Z,96337.82
2019-04-27T13:41:07.222Z,96342.08
2019-04-27T13:42:15.626Z,96337.69
2019-04-27T13:43:32.792Z,96341.12